Time;durP1;ratioP1;P1;durP2;ratioP2;P2;SDS_P1;SDS_P2;PMS_P1;PMS_P2;Temp;Humidity;BMP_temperature;BMP_pressure;BME280_temperature;BME280_humidity;BME280_pressure;Samples;Min_cycle;Max_cycle;Signal;HPM_P1;HPM_P2
2022/03/06 00:04:36;;;;;;;;;;;;;;;22.51;26.35;95694.69;10443120;28;1853;-57
2022/03/06 00:09:37;;;;;;;;;;;;;;;22.59;25.91;95695.94;10443066;28;2099;-57
2022/03/06 00:14:38;;;;;;;;;;;;;;;22.62;25.67;95690.88;10442773;28;1814;-55
2022/03/06 00:19:38;;;;;;;;;;;;;;;22.67;25.35;95682.84;10423913;28;2015;-57
2022/03/06 00:24:38;;;;;;;;;;;;;;;22.72;25.19;95694.41;10427891;28;1835;-56
2022/03/06 00:29:39;;;;;;;;;;;;;;;22.70;24.95;95691.28;10423303;28;1731;-57
2022/03/06 00:34:39;;;;;;;;;;;;;;;22.71;24.83;95704.19;10426068;28;1858;-56
2022/03/06 00:39:39;;;;;;;;;;;;;;;22.71;24.69;95692.88;10422204;28;1918;-55
2022/03/06 00:44:40;;;;;;;;;;;;;;;22.71;24.59;95698.91;10423213;28;1839;-54
2022/03/06 00:49:40;;;;;;;;;;;;;;;22.73;24.36;95694.13;10424511;28;1743;-56
2022/03/06 00:54:40;;;;;;;;;;;;;;;22.76;24.17;95695.41;10424691;28;1790;-57
2022/03/06 00:59:41;;;;;;;;;;;;;;;22.72;24.07;95689.94;10422986;28;1914;-56
2022/03/06 01:04:41;;;;;;;;;;;;;;;22.73;23.82;95693.34;10443153;28;1834;-56
2022/03/06 01:09:41;;;;;;;;;;;;;;;22.74;23.79;95700.19;10441149;28;2065;-55
2022/03/06 01:14:42;;;;;;;;;;;;;;;22.72;23.75;95692.56;10441255;28;1882;-53
2022/03/06 01:19:42;;;;;;;;;;;;;;;22.74;23.70;95698.34;10442355;28;1976;-55
2022/03/06 01:24:42;;;;;;;;;;;;;;;22.73;23.43;95693.34;10424661;28;1835;-55
2022/03/06 01:29:44;;;;;;;;;;;;;;;22.72;23.44;95700.50;10432135;28;2322;-54
2022/03/06 01:34:44;;;;;;;;;;;;;;;22.70;23.39;95694.72;10421471;28;1915;-57
2022/03/06 01:39:45;;;;;;;;;;;;;;;22.72;23.39;95689.94;10441201;28;1965;-55
2022/03/06 01:44:46;;;;;;;;;;;;;;;22.71;23.15;95698.16;10441136;28;1948;-52
2022/03/06 01:49:47;;;;;;;;;;;;;;;22.71;23.22;95690.97;10422803;28;1958;-53
2022/03/06 01:54:48;;;;;;;;;;;;;;;22.71;23.31;95690.22;10416448;28;1901;-54
2022/03/06 01:59:48;;;;;;;;;;;;;;;22.69;23.31;95697.66;10440829;28;1982;-57
2022/03/06 02:04:49;;;;;;;;;;;;;;;22.72;23.05;95689.94;10439870;28;1842;-57
2022/03/06 02:09:49;;;;;;;;;;;;;;;22.71;23.02;95690.22;10442016;28;1936;-55
2022/03/06 02:14:51;;;;;;;;;;;;;;;22.72;23.02;95682.00;10437072;28;1905;-57
2022/03/06 02:20:22;;;;;;;;;;;;;;;22.72;23.05;95683.84;10423750;28;1910;-55
2022/03/06 02:25:25;;;;;;;;;;;;;;;22.71;22.90;95687.56;10431399;28;1917;-55
2022/03/06 02:30:29;;;;;;;;;;;;;;;22.70;22.97;95680.72;10450832;28;1936;-57
2022/03/06 02:35:30;;;;;;;;;;;;;;;22.71;22.62;95683.06;10448848;28;1881;-55
2022/03/06 02:40:37;;;;;;;;;;;;;;;22.74;22.61;95690.41;10431976;28;1933;-54
2022/03/06 02:45:39;;;;;;;;;;;;;;;22.72;22.57;95694.41;10431963;28;1983;-55
2022/03/06 02:50:39;;;;;;;;;;;;;;;22.73;22.58;95690.72;10434606;28;1988;-56
2022/03/06 02:55:41;;;;;;;;;;;;;;;22.70;22.67;95686.00;10429776;28;2090;-52
2022/03/06 03:00:42;;;;;;;;;;;;;;;22.71;22.36;95690.22;10447630;28;2006;-56
2022/03/06 03:05:43;;;;;;;;;;;;;;;22.71;22.30;95690.22;10419745;28;1938;-54
2022/03/06 03:10:43;;;;;;;;;;;;;;;22.71;22.49;95693.63;10431661;28;1928;-56
2022/03/06 03:15:43;;;;;;;;;;;;;;;22.70;22.42;95707.94;10424059;28;1927;-57
2022/03/06 03:20:44;;;;;;;;;;;;;;;22.71;22.48;95708.72;10431049;28;1973;-56
2022/03/06 03:25:44;;;;;;;;;;;;;;;22.71;22.27;95701.56;10443159;28;1829;-54
2022/03/06 03:30:45;;;;;;;;;;;;;;;22.70;22.33;95702.63;10421833;28;1857;-56
2022/03/06 03:35:45;;;;;;;;;;;;;;;22.67;22.22;95708.50;10444623;28;1916;-54
2022/03/06 03:40:47;;;;;;;;;;;;;;;22.65;22.29;95714.06;10425039;28;1910;-52
2022/03/06 03:45:47;;;;;;;;;;;;;;;22.74;22.25;95724.78;10447478;28;1935;-56
2022/03/06 03:50:47;;;;;;;;;;;;;;;22.77;22.05;95720.78;10407021;28;2406;-55
2022/03/06 03:55:48;;;;;;;;;;;;;;;22.75;22.01;95730.84;10438771;28;2027;-57
2022/03/06 04:00:58;;;;;;;;;;;;;;;22.75;22.12;95728.97;10445219;28;2018;-56
2022/03/06 04:05:58;;;;;;;;;;;;;;;22.77;21.95;95726.06;10443958;28;1913;-53
2022/03/06 04:10:59;;;;;;;;;;;;;;;22.73;21.98;95733.75;10424388;28;1989;-55
2022/03/06 04:16:00;;;;;;;;;;;;;;;22.74;22.02;95732.69;10440196;28;2007;-53
2022/03/06 04:21:01;;;;;;;;;;;;;;;22.65;23.44;95734.41;10444868;28;2281;-53
2022/03/06 04:26:02;;;;;;;;;;;;;;;22.67;23.22;95741.00;10406446;28;1947;-55
2022/03/06 04:31:02;;;;;;;;;;;;;;;22.72;23.01;95742.78;10438806;28;1913;-55
2022/03/06 04:36:03;;;;;;;;;;;;;;;22.71;23.02;95743.06;10439402;28;1924;-56
2022/03/06 04:41:04;;;;;;;;;;;;;;;22.73;22.69;95740.91;10424240;28;2097;-56
2022/03/06 04:46:05;;;;;;;;;;;;;;;22.74;22.75;95739.84;10422018;28;2009;-57
2022/03/06 04:51:06;;;;;;;;;;;;;;;22.75;22.67;95741.41;10437315;28;1912;-56
2022/03/06 04:56:07;;;;;;;;;;;;;;;22.74;22.27;95748.56;10436335;28;1982;-56
2022/03/06 05:01:07;;;;;;;;;;;;;;;22.76;22.42;95753.53;10422182;28;1967;-56
2022/03/06 05:06:07;;;;;;;;;;;;;;;22.75;22.25;95749.34;10436573;28;1971;-56
2022/03/06 05:11:08;;;;;;;;;;;;;;;22.78;22.24;95752.19;10440730;28;1902;-55
2022/03/06 05:16:08;;;;;;;;;;;;;;;22.77;22.25;95744.56;10441816;28;1964;-57
2022/03/06 05:21:09;;;;;;;;;;;;;;;22.75;22.09;95739.53;10423787;28;2002;-55
2022/03/06 05:26:09;;;;;;;;;;;;;;;22.76;22.24;95749.06;10422171;28;1946;-56
2022/03/06 05:31:13;;;;;;;;;;;;;;;22.74;22.07;95751.19;10439914;28;1952;-53
2022/03/06 05:36:13;;;;;;;;;;;;;;;22.74;21.92;95758.34;10439690;28;2051;-57
2022/03/06 05:41:14;;;;;;;;;;;;;;;22.74;21.95;95760.97;10423433;28;2060;-57
2022/03/06 05:46:14;;;;;;;;;;;;;;;22.76;21.74;95761.47;10438733;28;1898;-55
2022/03/06 05:51:14;;;;;;;;;;;;;;;22.75;21.73;95767.84;10440431;28;2047;-57
2022/03/06 05:56:15;;;;;;;;;;;;;;;22.73;21.53;95775.28;10441185;28;1839;-55
2022/03/06 06:01:17;;;;;;;;;;;;;;;22.72;22.01;95777.13;10429881;28;1975;-56
2022/03/06 06:06:17;;;;;;;;;;;;;;;22.73;21.79;95781.31;10424976;28;1937;-55
2022/03/06 06:11:18;;;;;;;;;;;;;;;22.73;21.78;95785.84;10424827;28;1999;-56
2022/03/06 06:16:18;;;;;;;;;;;;;;;22.73;21.52;95785.84;10447963;28;1938;-55
2022/03/06 06:21:19;;;;;;;;;;;;;;;22.72;21.49;95777.13;10426331;28;1998;-55
2022/03/06 06:26:19;;;;;;;;;;;;;;;22.68;21.69;95778.78;10428359;28;1993;-56
2022/03/06 06:31:20;;;;;;;;;;;;;;;22.67;21.68;95776.41;10447781;28;1968;-52
2022/03/06 06:36:21;;;;;;;;;;;;;;;22.69;21.34;95782.22;10445844;28;2014;-52
2022/03/06 06:41:21;;;;;;;;;;;;;;;22.70;21.67;95778.47;10442891;28;2010;-56
2022/03/06 06:46:21;;;;;;;;;;;;;;;22.69;21.52;95787.50;10446523;28;2019;-55
2022/03/06 06:51:22;;;;;;;;;;;;;;;22.67;21.57;95787.75;10426929;28;1906;-54
2022/03/06 06:56:22;;;;;;;;;;;;;;;22.69;21.41;95784.84;10443775;28;1940;-55
2022/03/06 07:01:23;;;;;;;;;;;;;;;22.65;21.33;95784.63;10443385;28;1973;-54
2022/03/06 07:06:23;;;;;;;;;;;;;;;22.67;21.42;95795.69;10443227;28;1802;-53
2022/03/06 07:11:23;;;;;;;;;;;;;;;22.71;21.60;95814.41;10446318;28;1917;-51
2022/03/06 07:16:24;;;;;;;;;;;;;;;22.67;21.67;95808.13;10426775;28;1683;-54
2022/03/06 07:21:24;;;;;;;;;;;;;;;22.71;21.31;95811.78;10446170;28;1969;-51
2022/03/06 07:26:24;;;;;;;;;;;;;;;22.67;21.53;95814.19;10421675;28;1862;-53
2022/03/06 07:31:25;;;;;;;;;;;;;;;22.66;21.39;95809.97;10445168;28;1766;-54
2022/03/06 07:36:27;;;;;;;;;;;;;;;22.69;21.28;95811.28;10442183;28;1767;-56
2022/03/06 07:41:27;;;;;;;;;;;;;;;22.73;21.41;95817.56;10440380;28;1925;-54
2022/03/06 07:46:27;;;;;;;;;;;;;;;22.69;21.43;95816.56;10426544;28;1829;-57
2022/03/06 07:51:27;;;;;;;;;;;;;;;22.68;21.46;95807.84;10422515;28;1863;-57
2022/03/06 07:56:28;;;;;;;;;;;;;;;22.68;21.53;95815.75;10420326;28;1721;-55
2022/03/06 08:01:28;;;;;;;;;;;;;;;22.70;21.31;95820.75;10426750;28;1918;-56
2022/03/06 08:06:28;;;;;;;;;;;;;;;22.70;21.32;95820.75;10418300;28;1697;-53
2022/03/06 08:11:29;;;;;;;;;;;;;;;22.72;21.48;95826.53;10445582;28;1881;-56
2022/03/06 08:16:29;;;;;;;;;;;;;;;22.69;21.36;95827.13;10421480;28;1831;-51
2022/03/06 08:21:29;;;;;;;;;;;;;;;22.70;21.32;95828.69;10442153;28;1913;-56
2022/03/06 08:26:29;;;;;;;;;;;;;;;22.71;21.39;95832.91;10420748;28;1877;-53
2022/03/06 08:31:30;;;;;;;;;;;;;;;22.72;21.56;95826.53;10445494;28;1839;-55
2022/03/06 08:36:31;;;;;;;;;;;;;;;22.70;21.42;95824.19;10441937;28;1787;-54
2022/03/06 08:41:31;;;;;;;;;;;;;;;22.72;21.55;95831.81;10442714;28;1989;-55
2022/03/06 08:46:31;;;;;;;;;;;;;;;22.69;21.33;95827.13;10440558;28;1885;-53
2022/03/06 08:51:32;;;;;;;;;;;;;;;22.69;21.54;95837.69;10441526;28;1818;-55
2022/03/06 08:56:32;;;;;;;;;;;;;;;22.68;21.41;95828.97;10440676;28;1845;-54
2022/03/06 09:01:33;;;;;;;;;;;;;;;22.67;21.56;95825.53;10442119;28;1910;-55
2022/03/06 09:06:33;;;;;;;;;;;;;;;22.65;21.22;95819.75;10439988;28;1771;-57
2022/03/06 09:11:34;;;;;;;;;;;;;;;22.59;20.68;95812.97;10441950;28;1859;-52
2022/03/06 09:16:34;;;;;;;;;;;;;;;22.25;20.36;95822.09;10418411;28;1746;-55
2022/03/06 09:21:36;;;;;;;;;;;;;;;22.08;20.67;95822.53;10440185;28;1918;-55
2022/03/06 09:26:36;;;;;;;;;;;;;;;22.07;20.67;95823.59;10430534;28;1970;-57
2022/03/06 09:31:37;;;;;;;;;;;;;;;22.27;21.16;95823.38;10427232;28;1841;-56
2022/03/06 09:36:38;;;;;;;;;;;;;;;22.14;21.02;95818.00;10417206;28;1855;-56
2022/03/06 09:41:39;;;;;;;;;;;;;;;22.06;20.78;95822.03;10439919;28;1906;-57
2022/03/06 09:46:39;;;;;;;;;;;;;;;22.18;21.32;95819.00;10420811;28;1844;-56
2022/03/06 09:51:40;;;;;;;;;;;;;;;22.35;22.91;95817.47;10418878;28;3700;-57
2022/03/06 09:56:41;;;;;;;;;;;;;;;22.43;22.90;95831.91;10432992;28;3344;-53
2022/03/06 10:01:42;;;;;;;;;;;;;;;22.42;22.76;95823.19;10437259;28;3402;-50
2022/03/06 10:06:53;;;;;;;;;;;;;;;22.44;22.74;95830.84;10419325;28;1805;-56
2022/03/06 10:11:54;;;;;;;;;;;;;;;22.42;22.62;95825.06;10420871;28;3450;-55
2022/03/06 10:17:11;;;;;;;;;;;;;;;22.42;22.82;95828.47;10391209;28;1909;-55
2022/03/06 10:22:12;;;;;;;;;;;;;;;22.24;22.40;95834.50;10432693;28;1792;-57
2022/03/06 10:27:13;;;;;;;;;;;;;;;22.20;22.72;95838.78;10436724;28;1826;-54
2022/03/06 10:32:13;;;;;;;;;;;;;;;22.24;22.77;95826.56;10436874;28;1938;-51
2022/03/06 10:37:14;;;;;;;;;;;;;;;22.24;22.16;95821.31;10413845;28;1983;-53
2022/03/06 10:42:21;;;;;;;;;;;;;;;22.20;22.58;95822.13;10418027;28;2086;-53
2022/03/06 10:47:22;;;;;;;;;;;;;;;22.15;22.50;95828.28;10440892;28;1858;-51
2022/03/06 10:52:23;;;;;;;;;;;;;;;22.18;22.60;95819.78;10432415;28;1807;-49
2022/03/06 10:57:24;;;;;;;;;;;;;;;22.18;23.01;95825.06;10425811;28;1902;-52
2022/03/06 11:02:24;;;;;;;;;;;;;;;22.16;23.06;95829.06;10425174;28;1804;-52
2022/03/06 11:07:29;;;;;;;;;;;;;;;22.12;22.66;95814.84;10421659;28;1846;-51
2022/03/06 11:12:29;;;;;;;;;;;;;;;22.12;22.92;95812.19;10439344;28;1869;-53
2022/03/06 11:17:32;;;;;;;;;;;;;;;22.11;22.98;95806.16;10441847;28;1905;-53
2022/03/06 11:22:43;;;;;;;;;;;;;;;22.11;23.08;95813.28;10424584;28;1859;-50
2022/03/06 11:27:53;;;;;;;;;;;;;;;22.14;23.21;95807.44;10409442;28;1821;-49
2022/03/06 11:33:02;;;;;;;;;;;;;;;22.16;23.94;95802.66;10441195;28;1839;-53
2022/03/06 11:38:02;;;;;;;;;;;;;;;22.16;24.58;95798.16;10436977;28;1902;-52
2022/03/06 11:43:05;;;;;;;;;;;;;;;22.18;24.61;95796.03;10400668;28;1579;-53
2022/03/06 11:48:05;;;;;;;;;;;;;;;22.15;25.12;95793.97;10409589;28;1494;-53
2022/03/06 11:53:27;;;;;;;;;;;;;;;22.15;25.10;95791.31;10407390;28;1961;-53
2022/03/06 11:58:47;;;;;;;;;;;;;;;22.17;24.76;95773.34;10398290;28;1988;-53
2022/03/06 12:03:47;;;;;;;;;;;;;;;22.15;24.82;95780.75;10414423;28;1672;-54
2022/03/06 12:08:48;;;;;;;;;;;;;;;22.12;24.59;95777.88;10418323;28;2067;-50
2022/03/06 12:13:49;;;;;;;;;;;;;;;22.14;25.10;95762.53;10435094;28;1878;-52
2022/03/06 12:19:03;;;;;;;;;;;;;;;22.12;25.38;95768.13;10436715;28;1913;-54
2022/03/06 12:24:09;;;;;;;;;;;;;;;22.07;25.78;95762.88;10440871;28;1810;-51
2022/03/06 12:29:30;;;;;;;;;;;;;;;22.05;25.78;95765.03;10437316;28;1838;-51
2022/03/06 12:34:34;;;;;;;;;;;;;;;22.08;25.95;95761.03;10436646;28;1830;-49
2022/03/06 12:39:35;;;;;;;;;;;;;;;22.06;26.53;95750.78;10443823;28;1910;-52
2022/03/06 12:44:36;;;;;;;;;;;;;;;22.10;26.26;95751.78;10433462;28;2019;-50
2022/03/06 12:49:36;;;;;;;;;;;;;;;22.08;25.74;95758.41;10424590;28;1871;-52
2022/03/06 12:54:36;;;;;;;;;;;;;;;22.07;25.56;95749.69;10437255;28;1945;-52
2022/03/06 12:59:46;;;;;;;;;;;;;;;22.03;25.91;95751.31;10418770;28;2148;-55
2022/03/06 13:04:53;;;;;;;;;;;;;;;22.03;25.73;95748.69;10419886;28;1825;-51
2022/03/06 13:09:57;;;;;;;;;;;;;;;22.07;25.55;95741.75;10437571;28;2067;-51
2022/03/06 13:14:57;;;;;;;;;;;;;;;22.05;25.06;95738.63;10436804;28;1823;-53
2022/03/06 13:19:58;;;;;;;;;;;;;;;22.07;24.97;95739.13;10421954;28;2004;-54
2022/03/06 13:24:58;;;;;;;;;;;;;;;22.10;24.95;95738.56;10420828;28;1858;-54
2022/03/06 13:30:12;;;;;;;;;;;;;;;22.07;25.19;95731.22;10432942;28;2322;-50
2022/03/06 13:35:31;;;;;;;;;;;;;;;22.09;24.69;95733.59;10438373;28;1768;-54
2022/03/06 13:40:36;;;;;;;;;;;;;;;22.04;24.72;95737.06;10439392;28;2003;-52
2022/03/06 13:45:36;;;;;;;;;;;;;;;22.02;24.67;95739.19;10418460;28;1815;-51
2022/03/06 13:50:40;;;;;;;;;;;;;;;22.02;24.56;95735.78;10421242;28;1843;-55
2022/03/06 13:55:49;;;;;;;;;;;;;;;22.04;25.07;95736.28;10430608;28;2233;-51
2022/03/06 14:00:59;;;;;;;;;;;;;;;22.07;24.55;95744.41;10439886;28;1969;-54
2022/03/06 14:06:00;;;;;;;;;;;;;;;22.06;24.50;95740.22;10422930;28;2029;-50
2022/03/06 14:11:01;;;;;;;;;;;;;;;22.02;24.68;95739.19;10436155;28;1866;-51
2022/03/06 14:16:02;;;;;;;;;;;;;;;22.01;24.50;95737.63;10440805;28;1859;-50
2022/03/06 14:21:06;;;;;;;;;;;;;;;22.00;24.66;95737.91;10443014;28;1914;-51
2022/03/06 14:26:06;;;;;;;;;;;;;;;21.98;24.48;95734.75;10429805;28;2006;-50
2022/03/06 14:31:07;;;;;;;;;;;;;;;22.01;24.48;95736.84;10447575;28;1881;-55
2022/03/06 14:36:07;;;;;;;;;;;;;;;22.01;24.49;95729.69;10429087;28;1983;-52
2022/03/06 14:41:07;;;;;;;;;;;;;;;21.99;24.48;95739.75;10425486;28;1914;-52
2022/03/06 14:46:08;;;;;;;;;;;;;;;21.97;24.35;95736.63;10427915;28;1860;-54
2022/03/06 14:51:08;;;;;;;;;;;;;;;21.96;24.61;95739.53;10440829;28;1901;-54
2022/03/06 14:56:11;;;;;;;;;;;;;;;21.96;24.56;95742.19;10423439;28;1815;-51
2022/03/06 15:01:12;;;;;;;;;;;;;;;21.93;24.49;95745.41;10423127;28;1970;-50
2022/03/06 15:06:14;;;;;;;;;;;;;;;21.94;24.28;95739.03;10425167;28;2231;-52
2022/03/06 15:11:15;;;;;;;;;;;;;;;21.92;24.23;95736.69;10443097;28;1839;-50
2022/03/06 15:16:15;;;;;;;;;;;;;;;21.92;24.37;95741.97;10425427;28;1831;-51
2022/03/06 15:21:16;;;;;;;;;;;;;;;21.92;24.16;95738.53;10442093;28;1992;-51
2022/03/06 15:26:17;;;;;;;;;;;;;;;21.90;24.15;95741.47;10428206;28;1751;-50
2022/03/06 15:31:18;;;;;;;;;;;;;;;21.90;24.23;95744.09;10441794;28;2072;-54
2022/03/06 15:36:18;;;;;;;;;;;;;;;21.88;24.50;95745.44;10423471;28;1843;-53
2022/03/06 15:41:18;;;;;;;;;;;;;;;21.85;24.69;95752.06;10433094;28;1906;-51
2022/03/06 15:46:19;;;;;;;;;;;;;;;21.89;24.56;95750.44;10442248;28;1891;-51
2022/03/06 15:51:19;;;;;;;;;;;;;;;21.86;24.79;95749.13;10439361;28;1818;-52
2022/03/06 15:56:19;;;;;;;;;;;;;;;21.91;24.88;95747.53;10423569;28;2017;-49
2022/03/06 16:01:20;;;;;;;;;;;;;;;21.94;24.39;95749.59;10443128;28;1948;-52
2022/03/06 16:06:23;;;;;;;;;;;;;;;21.92;24.51;95752.53;10437218;28;1793;-54
2022/03/06 16:11:25;;;;;;;;;;;;;;;21.92;24.50;95754.38;10434950;28;2039;-53
2022/03/06 16:16:25;;;;;;;;;;;;;;;21.86;24.62;95751.00;10418130;28;3508;-50
2022/03/06 16:21:26;;;;;;;;;;;;;;;21.88;24.80;95757.56;10435968;28;3406;-49
2022/03/06 16:26:26;;;;;;;;;;;;;;;21.82;24.58;95760.56;10436822;28;1850;-51
2022/03/06 16:31:27;;;;;;;;;;;;;;;21.83;24.33;95760.28;10425578;28;1899;-54
2022/03/06 16:36:30;;;;;;;;;;;;;;;21.80;24.53;95760.03;10422778;28;1945;-56
2022/03/06 16:41:30;;;;;;;;;;;;;;;21.81;24.35;95758.94;10440583;28;1898;-53
2022/03/06 16:46:30;;;;;;;;;;;;;;;21.80;24.07;95762.66;10436131;28;1811;-54
2022/03/06 16:51:31;;;;;;;;;;;;;;;21.75;23.92;95771.41;10440710;28;1824;-51
2022/03/06 16:56:31;;;;;;;;;;;;;;;21.74;24.02;95775.09;10439528;28;1707;-54
2022/03/06 17:01:32;;;;;;;;;;;;;;;21.71;24.55;95774.88;10439277;28;1910;-53
2022/03/06 17:06:32;;;;;;;;;;;;;;;21.75;24.54;95781.16;10418990;28;1911;-52
2022/03/06 17:11:33;;;;;;;;;;;;;;;21.74;25.05;95785.66;10435357;28;1779;-50
2022/03/06 17:16:33;;;;;;;;;;;;;;;21.77;25.26;95789.59;10434774;28;1861;-54
2022/03/06 17:21:36;;;;;;;;;;;;;;;21.67;25.54;95801.03;10413627;28;1986;-49
2022/03/06 17:26:37;;;;;;;;;;;;;;;21.68;25.53;95799.97;10410180;28;1849;-54
2022/03/06 17:31:39;;;;;;;;;;;;;;;21.69;25.53;95808.69;10415235;28;1775;-50
2022/03/06 17:36:39;;;;;;;;;;;;;;;21.69;25.92;95819.22;10409678;28;1832;-54
2022/03/06 17:41:39;;;;;;;;;;;;;;;21.70;26.08;95826.84;10435773;28;1913;-54
2022/03/06 17:46:40;;;;;;;;;;;;;;;21.71;26.15;95832.94;10436437;28;1938;-56
2022/03/06 17:51:40;;;;;;;;;;;;;;;21.74;26.10;95841.06;10425962;28;1525;-54
2022/03/06 17:56:41;;;;;;;;;;;;;;;21.71;26.37;95846.91;10444975;28;1478;-54
2022/03/06 18:01:41;;;;;;;;;;;;;;;21.75;26.08;95857.69;10449701;28;1906;-57
2022/03/06 18:06:42;;;;;;;;;;;;;;;21.71;26.23;95859.31;10445404;28;1526;-53
2022/03/06 18:11:43;;;;;;;;;;;;;;;21.71;26.18;95864.59;10448963;28;1484;-51
2022/03/06 18:16:43;;;;;;;;;;;;;;;21.70;26.22;95863.03;10444863;28;1658;-51
2022/03/06 18:21:45;;;;;;;;;;;;;;;21.68;25.96;95865.13;10429150;28;1965;-53
2022/03/06 18:26:48;;;;;;;;;;;;;;;21.71;25.71;95867.22;10445319;28;1533;-51
2022/03/06 18:31:49;;;;;;;;;;;;;;;21.69;25.97;95874.63;10447076;28;1501;-55
2022/03/06 18:36:49;;;;;;;;;;;;;;;21.67;25.88;95885.47;10440497;28;1475;-55
2022/03/06 18:41:49;;;;;;;;;;;;;;;21.66;25.85;95883.88;10431460;28;1996;-56
2022/03/06 18:46:50;;;;;;;;;;;;;;;21.62;25.62;95884.69;10428320;28;1550;-55
2022/03/06 18:51:51;;;;;;;;;;;;;;;21.62;25.73;95884.69;10440607;28;1364;-56
2022/03/06 18:56:51;;;;;;;;;;;;;;;21.60;25.51;95885.00;10436957;28;1787;-51
2022/03/06 19:01:52;;;;;;;;;;;;;;;21.60;25.29;95894.75;10429530;28;1961;-53
2022/03/06 19:06:53;;;;;;;;;;;;;;;21.57;25.34;95890.03;10446677;28;1445;-51
2022/03/06 19:11:54;;;;;;;;;;;;;;;21.52;25.33;95892.69;10448894;28;1598;-55
2022/03/06 19:16:54;;;;;;;;;;;;;;;21.54;25.32;95890.56;10457036;23;2379;-72
2022/03/06 19:21:54;;;;;;;;;;;;;;;21.52;25.34;95897.97;10445834;28;1969;-74
2022/03/06 19:26:55;;;;;;;;;;;;;;;21.50;25.22;95895.63;10428388;28;1756;-74
2022/03/06 19:31:57;;;;;;;;;;;;;;;21.48;25.14;95896.94;10449200;28;1818;-73
2022/03/06 19:36:57;;;;;;;;;;;;;;;21.43;25.39;95899.66;10413668;28;1805;-72
2022/03/06 19:41:58;;;;;;;;;;;;;;;21.42;25.09;95906.75;10410407;28;1910;-73
2022/03/06 19:46:58;;;;;;;;;;;;;;;21.39;25.22;95909.16;10413612;28;1850;-72
2022/03/06 19:52:01;;;;;;;;;;;;;;;21.36;24.97;95904.44;10445227;28;1810;-72
2022/03/06 19:57:01;;;;;;;;;;;;;;;21.32;25.06;95906.03;10415479;28;1888;-70
2022/03/06 20:02:03;;;;;;;;;;;;;;;21.28;24.71;95910.28;10404275;28;2041;-70
2022/03/06 20:07:04;;;;;;;;;;;;;;;21.25;24.85;95908.19;10426935;28;1879;-70
2022/03/06 20:12:06;;;;;;;;;;;;;;;21.21;24.91;95915.06;10446109;28;1833;-71
2022/03/06 20:17:07;;;;;;;;;;;;;;;21.20;24.72;95924.06;10424754;28;1749;-71
2022/03/06 20:22:07;;;;;;;;;;;;;;;21.15;24.60;95922.22;10419466;28;1907;-70
2022/03/06 20:27:08;;;;;;;;;;;;;;;21.12;24.50;95929.91;10412814;28;1884;-71
2022/03/06 20:32:08;;;;;;;;;;;;;;;21.08;24.33;95926.22;10409913;28;1748;-71
2022/03/06 20:37:12;;;;;;;;;;;;;;;21.06;24.58;95929.16;10405707;28;1852;-69
2022/03/06 20:42:12;;;;;;;;;;;;;;;21.05;24.68;95924.91;10441871;28;1898;-72
2022/03/06 20:47:13;;;;;;;;;;;;;;;20.97;24.82;95928.88;10435328;28;1860;-74
2022/03/06 20:52:13;;;;;;;;;;;;;;;21.01;24.50;95929.13;10454009;28;1799;-74
2022/03/06 20:57:14;;;;;;;;;;;;;;;20.97;24.56;95928.88;10407145;28;1953;-74
2022/03/06 21:02:15;;;;;;;;;;;;;;;20.96;24.80;95932.56;10408031;28;1902;-74
2022/03/06 21:07:16;;;;;;;;;;;;;;;20.94;24.70;95944.44;10441774;28;1893;-74
2022/03/06 21:12:16;;;;;;;;;;;;;;;20.92;24.37;95946.56;10402848;28;1932;-73
2022/03/06 21:17:16;;;;;;;;;;;;;;;20.86;24.57;95948.44;10414367;28;1902;-74
2022/03/06 21:22:17;;;;;;;;;;;;;;;20.85;24.53;95946.88;10424026;28;1894;-73
2022/03/06 21:27:17;;;;;;;;;;;;;;;20.85;24.45;95940.81;10457089;28;1834;-73
2022/03/06 21:32:18;;;;;;;;;;;;;;;20.79;23.99;95937.38;10411380;28;1851;-73
2022/03/06 21:37:18;;;;;;;;;;;;;;;20.82;24.36;95938.69;10422111;28;1789;-74
2022/03/06 21:42:18;;;;;;;;;;;;;;;20.72;24.56;95942.16;10410276;28;2256;-74
2022/03/06 21:47:19;;;;;;;;;;;;;;;20.68;24.52;95946.41;10441605;28;2250;-72
2022/03/06 21:52:19;;;;;;;;;;;;;;;20.79;24.42;95944.53;10420969;28;1980;-73
2022/03/06 21:57:20;;;;;;;;;;;;;;;20.86;24.58;95945.81;10424219;28;1780;-74
2022/03/06 22:02:20;;;;;;;;;;;;;;;20.98;24.28;95943.63;10440611;28;1967;-74
2022/03/06 22:07:20;;;;;;;;;;;;;;;21.04;24.18;95939.94;10445429;28;1976;-74
2022/03/06 22:12:21;;;;;;;;;;;;;;;21.11;24.10;95947.56;10427743;28;1946;-73
2022/03/06 22:17:21;;;;;;;;;;;;;;;21.21;23.99;95946.69;10424665;28;1846;-73
2022/03/06 22:22:22;;;;;;;;;;;;;;;21.25;23.82;95940.63;10392546;28;1910;-74
2022/03/06 22:27:25;;;;;;;;;;;;;;;21.31;23.71;95938.75;10423602;28;1782;-74
2022/03/06 22:32:25;;;;;;;;;;;;;;;21.37;23.80;95937.66;10425411;28;1856;-73
2022/03/06 22:37:26;;;;;;;;;;;;;;;21.42;23.69;95938.41;10426312;28;1721;-73
2022/03/06 22:42:26;;;;;;;;;;;;;;;21.42;23.57;95935.78;10432806;28;1938;-74
2022/03/06 22:47:26;;;;;;;;;;;;;;;21.45;23.64;95939.72;10446025;28;1902;-74
2022/03/06 22:52:27;;;;;;;;;;;;;;;21.48;23.73;95931.25;10431930;28;1752;-73
2022/03/06 22:57:27;;;;;;;;;;;;;;;21.48;23.63;95929.41;10431598;28;1854;-73
2022/03/06 23:02:27;;;;;;;;;;;;;;;21.51;23.44;95933.34;10430559;28;1898;-74
2022/03/06 23:07:28;;;;;;;;;;;;;;;21.52;23.50;95930.41;10445781;28;1945;-73
2022/03/06 23:12:28;;;;;;;;;;;;;;;21.55;23.37;95929.09;10423937;28;1759;-74
2022/03/06 23:17:29;;;;;;;;;;;;;;;21.58;23.21;95931.16;10430957;28;1784;-73
2022/03/06 23:22:29;;;;;;;;;;;;;;;21.57;23.29;95921.69;10390482;28;2013;-73
2022/03/06 23:27:30;;;;;;;;;;;;;;;21.56;23.37;95920.09;10414058;28;1869;-74
2022/03/06 23:32:30;;;;;;;;;;;;;;;21.60;23.51;95916.63;10426311;28;1860;-73
2022/03/06 23:37:30;;;;;;;;;;;;;;;21.62;23.31;95913.72;10422204;28;1801;-73
2022/03/06 23:42:31;;;;;;;;;;;;;;;21.60;23.19;95921.13;10442638;28;1894;-73
2022/03/06 23:47:32;;;;;;;;;;;;;;;21.60;22.98;95921.13;10424149;28;1870;-73
2022/03/06 23:52:32;;;;;;;;;;;;;;;21.59;23.28;95919.56;10425324;28;1869;-74
2022/03/06 23:57:37;;;;;;;;;;;;;;;21.59;23.02;95917.72;10441954;28;1950;-73
